sensor_id;sensor_type;location;lat;lon;timestamp;temperature;humidity
12025;DHT22;6073;53.230;10.444;2022-12-07T00:01:12;2.70;99.90
12025;DHT22;6073;53.230;10.444;2022-12-07T00:03:48;2.70;99.90
12025;DHT22;6073;53.230;10.444;2022-12-07T00:06:15;2.70;99.90
12025;DHT22;6073;53.230;10.444;2022-12-07T00:08:41;2.70;99.90
12025;DHT22;6073;53.230;10.444;2022-12-07T00:11:09;2.70;99.90
12025;DHT22;6073;53.230;10.444;2022-12-07T00:13:35;2.70;99.90
12025;DHT22;6073;53.230;10.444;2022-12-07T00:16:10;2.70;99.90
12025;DHT22;6073;53.230;10.444;2022-12-07T00:18:36;2.70;99.90
12025;DHT22;6073;53.230;10.444;2022-12-07T00:21:10;2.70;99.90
12025;DHT22;6073;53.230;10.444;2022-12-07T00:23:36;2.80;99.90
12025;DHT22;6073;53.230;10.444;2022-12-07T00:28:31;2.90;99.90
12025;DHT22;6073;53.230;10.444;2022-12-07T00:31:01;2.90;99.90
12025;DHT22;6073;53.230;10.444;2022-12-07T00:33:27;2.90;99.90
12025;DHT22;6073;53.230;10.444;2022-12-07T00:35:58;2.90;99.90
12025;DHT22;6073;53.230;10.444;2022-12-07T00:38:24;2.90;99.90
12025;DHT22;6073;53.230;10.444;2022-12-07T00:41:01;3.00;99.90
12025;DHT22;6073;53.230;10.444;2022-12-07T00:43:28;3.00;99.90
12025;DHT22;6073;53.230;10.444;2022-12-07T00:45:54;3.00;99.90
12025;DHT22;6073;53.230;10.444;2022-12-07T00:48:21;3.00;99.90
12025;DHT22;6073;53.230;10.444;2022-12-07T00:50:47;3.00;99.90
12025;DHT22;6073;53.230;10.444;2022-12-07T00:53:14;3.10;99.90
12025;DHT22;6073;53.230;10.444;2022-12-07T00:55:39;3.20;99.90
12025;DHT22;6073;53.230;10.444;2022-12-07T00:58:05;3.20;99.90
12025;DHT22;6073;53.230;10.444;2022-12-07T01:00:31;3.20;99.90
12025;DHT22;6073;53.230;10.444;2022-12-07T01:02:58;3.20;99.90
12025;DHT22;6073;53.230;10.444;2022-12-07T01:05:27;3.20;99.90
12025;DHT22;6073;53.230;10.444;2022-12-07T01:07:52;3.20;99.90
12025;DHT22;6073;53.230;10.444;2022-12-07T01:10:18;3.20;99.90
12025;DHT22;6073;53.230;10.444;2022-12-07T01:12:43;3.20;99.90
12025;DHT22;6073;53.230;10.444;2022-12-07T01:15:09;3.20;99.90
12025;DHT22;6073;53.230;10.444;2022-12-07T01:17:35;3.30;99.90
12025;DHT22;6073;53.230;10.444;2022-12-07T01:20:02;3.30;99.90
12025;DHT22;6073;53.230;10.444;2022-12-07T01:22:27;3.30;99.90
12025;DHT22;6073;53.230;10.444;2022-12-07T01:24:53;3.30;99.90
12025;DHT22;6073;53.230;10.444;2022-12-07T01:27:18;3.30;99.90
12025;DHT22;6073;53.230;10.444;2022-12-07T01:29:45;3.30;99.90
12025;DHT22;6073;53.230;10.444;2022-12-07T01:32:10;3.30;99.90
12025;DHT22;6073;53.230;10.444;2022-12-07T01:34:36;3.40;99.90
12025;DHT22;6073;53.230;10.444;2022-12-07T01:37:02;3.30;99.90
12025;DHT22;6073;53.230;10.444;2022-12-07T01:39:27;3.40;99.90
12025;DHT22;6073;53.230;10.444;2022-12-07T01:41:53;3.40;99.90
12025;DHT22;6073;53.230;10.444;2022-12-07T01:46:54;3.40;99.90
12025;DHT22;6073;53.230;10.444;2022-12-07T01:49:44;3.40;99.90
12025;DHT22;6073;53.230;10.444;2022-12-07T01:54:36;3.40;99.90
12025;DHT22;6073;53.230;10.444;2022-12-07T01:57:03;3.50;99.90
12025;DHT22;6073;53.230;10.444;2022-12-07T01:59:33;3.40;99.90
12025;DHT22;6073;53.230;10.444;2022-12-07T02:02:00;3.50;99.90
12025;DHT22;6073;53.230;10.444;2022-12-07T02:04:27;3.50;99.90
12025;DHT22;6073;53.230;10.444;2022-12-07T02:06:54;3.50;99.90
12025;DHT22;6073;53.230;10.444;2022-12-07T02:09:20;3.50;99.90
12025;DHT22;6073;53.230;10.444;2022-12-07T02:11:46;3.60;99.90
12025;DHT22;6073;53.230;10.444;2022-12-07T02:14:11;3.60;99.90
12025;DHT22;6073;53.230;10.444;2022-12-07T02:17:27;3.60;99.90
12025;DHT22;6073;53.230;10.444;2022-12-07T02:28:48;3.70;99.90
12025;DHT22;6073;53.230;10.444;2022-12-07T02:31:19;3.70;99.90
12025;DHT22;6073;53.230;10.444;2022-12-07T02:34:08;3.70;99.90
12025;DHT22;6073;53.230;10.444;2022-12-07T02:36:50;3.70;99.90
12025;DHT22;6073;53.230;10.444;2022-12-07T02:39:28;3.60;99.90
12025;DHT22;6073;53.230;10.444;2022-12-07T02:42:03;3.60;99.90
12025;DHT22;6073;53.230;10.444;2022-12-07T02:44:33;3.60;99.90
12025;DHT22;6073;53.230;10.444;2022-12-07T02:47:13;3.60;99.90
12025;DHT22;6073;53.230;10.444;2022-12-07T02:49:40;3.60;99.90
12025;DHT22;6073;53.230;10.444;2022-12-07T02:52:07;3.60;99.90
12025;DHT22;6073;53.230;10.444;2022-12-07T02:54:32;3.70;99.90
12025;DHT22;6073;53.230;10.444;2022-12-07T02:59:57;3.60;99.90
12025;DHT22;6073;53.230;10.444;2022-12-07T03:16:45;3.60;99.90
12025;DHT22;6073;53.230;10.444;2022-12-07T03:19:17;3.50;99.90
12025;DHT22;6073;53.230;10.444;2022-12-07T03:21:53;3.50;99.90
12025;DHT22;6073;53.230;10.444;2022-12-07T03:24:24;3.40;99.90
12025;DHT22;6073;53.230;10.444;2022-12-07T03:26:54;3.40;99.90
12025;DHT22;6073;53.230;10.444;2022-12-07T03:29:30;3.40;99.90
12025;DHT22;6073;53.230;10.444;2022-12-07T03:32:16;3.40;99.90
12025;DHT22;6073;53.230;10.444;2022-12-07T03:34:50;3.40;99.90
12025;DHT22;6073;53.230;10.444;2022-12-07T03:37:39;3.30;99.90
12025;DHT22;6073;53.230;10.444;2022-12-07T03:40:10;3.30;99.90
12025;DHT22;6073;53.230;10.444;2022-12-07T03:42:37;3.40;99.90
12025;DHT22;6073;53.230;10.444;2022-12-07T03:45:04;3.40;99.90
12025;DHT22;6073;53.230;10.444;2022-12-07T03:47:39;3.40;99.90
12025;DHT22;6073;53.230;10.444;2022-12-07T03:50:31;3.30;99.90
12025;DHT22;6073;53.230;10.444;2022-12-07T03:53:08;3.30;99.90
12025;DHT22;6073;53.230;10.444;2022-12-07T03:55:37;3.30;99.90
12025;DHT22;6073;53.230;10.444;2022-12-07T03:58:08;3.20;99.90
12025;DHT22;6073;53.230;10.444;2022-12-07T04:00:37;3.20;99.90
12025;DHT22;6073;53.230;10.444;2022-12-07T04:03:03;3.10;99.90
12025;DHT22;6073;53.230;10.444;2022-12-07T04:05:28;3.10;99.90
12025;DHT22;6073;53.230;10.444;2022-12-07T04:07:54;3.00;99.90
12025;DHT22;6073;53.230;10.444;2022-12-07T04:10:20;3.00;99.90
12025;DHT22;6073;53.230;10.444;2022-12-07T04:13:11;3.00;99.90
12025;DHT22;6073;53.230;10.444;2022-12-07T04:15:36;3.00;99.90
12025;DHT22;6073;53.230;10.444;2022-12-07T04:18:05;2.90;99.90
12025;DHT22;6073;53.230;10.444;2022-12-07T04:20:30;2.90;99.90
12025;DHT22;6073;53.230;10.444;2022-12-07T04:22:56;2.90;99.90
12025;DHT22;6073;53.230;10.444;2022-12-07T04:25:22;2.90;99.90
12025;DHT22;6073;53.230;10.444;2022-12-07T04:27:47;2.80;99.90
12025;DHT22;6073;53.230;10.444;2022-12-07T04:30:13;2.80;99.90
12025;DHT22;6073;53.230;10.444;2022-12-07T04:32:38;2.80;99.90
12025;DHT22;6073;53.230;10.444;2022-12-07T04:35:05;2.80;99.90
12025;DHT22;6073;53.230;10.444;2022-12-07T04:37:30;2.70;99.90
12025;DHT22;6073;53.230;10.444;2022-12-07T04:39:56;2.70;99.90
12025;DHT22;6073;53.230;10.444;2022-12-07T04:42:21;2.70;99.90
12025;DHT22;6073;53.230;10.444;2022-12-07T04:44:47;2.60;99.90
12025;DHT22;6073;53.230;10.444;2022-12-07T04:47:12;2.50;99.90
12025;DHT22;6073;53.230;10.444;2022-12-07T04:49:38;2.40;99.90
12025;DHT22;6073;53.230;10.444;2022-12-07T04:52:04;2.40;99.90
12025;DHT22;6073;53.230;10.444;2022-12-07T04:54:29;2.40;99.90
12025;DHT22;6073;53.230;10.444;2022-12-07T04:56:55;2.30;99.90
12025;DHT22;6073;53.230;10.444;2022-12-07T04:59:20;2.30;99.90
12025;DHT22;6073;53.230;10.444;2022-12-07T05:01:46;2.20;99.90
12025;DHT22;6073;53.230;10.444;2022-12-07T05:04:12;2.10;99.90
12025;DHT22;6073;53.230;10.444;2022-12-07T05:06:37;2.10;99.90
12025;DHT22;6073;53.230;10.444;2022-12-07T05:09:04;2.10;99.90
12025;DHT22;6073;53.230;10.444;2022-12-07T05:11:30;2.10;99.90
12025;DHT22;6073;53.230;10.444;2022-12-07T05:14:20;2.00;99.90
12025;DHT22;6073;53.230;10.444;2022-12-07T05:16:48;2.00;99.90
12025;DHT22;6073;53.230;10.444;2022-12-07T05:19:15;2.00;99.90
12025;DHT22;6073;53.230;10.444;2022-12-07T05:21:41;2.00;99.90
12025;DHT22;6073;53.230;10.444;2022-12-07T05:24:09;1.90;99.90
12025;DHT22;6073;53.230;10.444;2022-12-07T05:26:36;1.90;99.90
12025;DHT22;6073;53.230;10.444;2022-12-07T05:29:02;1.90;99.90
12025;DHT22;6073;53.230;10.444;2022-12-07T05:31:28;1.90;99.90
12025;DHT22;6073;53.230;10.444;2022-12-07T05:33:53;1.80;99.90
12025;DHT22;6073;53.230;10.444;2022-12-07T05:36:19;1.80;99.90
12025;DHT22;6073;53.230;10.444;2022-12-07T05:38:45;1.80;99.90
12025;DHT22;6073;53.230;10.444;2022-12-07T05:41:14;1.70;99.90
12025;DHT22;6073;53.230;10.444;2022-12-07T05:43:59;1.70;99.90
12025;DHT22;6073;53.230;10.444;2022-12-07T05:46:25;1.70;99.90
12025;DHT22;6073;53.230;10.444;2022-12-07T05:48:51;1.70;99.90
12025;DHT22;6073;53.230;10.444;2022-12-07T05:51:16;1.60;99.90
12025;DHT22;6073;53.230;10.444;2022-12-07T05:53:42;1.60;99.90
12025;DHT22;6073;53.230;10.444;2022-12-07T05:56:07;1.60;99.90
12025;DHT22;6073;53.230;10.444;2022-12-07T05:58:33;1.50;99.90
12025;DHT22;6073;53.230;10.444;2022-12-07T06:01:17;1.50;99.90
12025;DHT22;6073;53.230;10.444;2022-12-07T06:03:42;1.40;99.90
12025;DHT22;6073;53.230;10.444;2022-12-07T06:06:08;1.40;99.90
12025;DHT22;6073;53.230;10.444;2022-12-07T06:08:33;1.30;99.90
12025;DHT22;6073;53.230;10.444;2022-12-07T06:10:59;1.40;99.90
12025;DHT22;6073;53.230;10.444;2022-12-07T06:13:43;1.30;99.90
12025;DHT22;6073;53.230;10.444;2022-12-07T06:16:08;1.20;99.90
12025;DHT22;6073;53.230;10.444;2022-12-07T06:18:34;1.30;99.90
12025;DHT22;6073;53.230;10.444;2022-12-07T06:20:59;1.10;99.90
12025;DHT22;6073;53.230;10.444;2022-12-07T06:23:25;1.10;99.90
12025;DHT22;6073;53.230;10.444;2022-12-07T06:25:50;0.90;99.90
12025;DHT22;6073;53.230;10.444;2022-12-07T06:28:16;1.00;99.90
12025;DHT22;6073;53.230;10.444;2022-12-07T06:30:41;0.80;99.90
12025;DHT22;6073;53.230;10.444;2022-12-07T06:33:07;0.80;99.90
12025;DHT22;6073;53.230;10.444;2022-12-07T06:35:33;0.90;99.90
12025;DHT22;6073;53.230;10.444;2022-12-07T06:37:58;0.90;99.90
12025;DHT22;6073;53.230;10.444;2022-12-07T06:40:24;0.80;99.90
12025;DHT22;6073;53.230;10.444;2022-12-07T06:42:50;0.80;99.90
12025;DHT22;6073;53.230;10.444;2022-12-07T06:45:15;0.80;99.90
12025;DHT22;6073;53.230;10.444;2022-12-07T06:47:41;0.80;99.90
12025;DHT22;6073;53.230;10.444;2022-12-07T06:50:07;0.80;99.90
12025;DHT22;6073;53.230;10.444;2022-12-07T06:52:33;0.80;99.90
12025;DHT22;6073;53.230;10.444;2022-12-07T06:54:58;0.80;99.90
12025;DHT22;6073;53.230;10.444;2022-12-07T06:57:24;0.70;99.90
12025;DHT22;6073;53.230;10.444;2022-12-07T06:59:50;0.70;99.90
12025;DHT22;6073;53.230;10.444;2022-12-07T07:02:16;0.70;99.90
12025;DHT22;6073;53.230;10.444;2022-12-07T07:04:42;0.80;99.90
12025;DHT22;6073;53.230;10.444;2022-12-07T07:07:07;0.80;99.90
12025;DHT22;6073;53.230;10.444;2022-12-07T07:09:33;0.80;99.90
12025;DHT22;6073;53.230;10.444;2022-12-07T07:11:58;0.80;99.90
12025;DHT22;6073;53.230;10.444;2022-12-07T07:14:24;0.90;99.90
12025;DHT22;6073;53.230;10.444;2022-12-07T07:16:50;0.90;99.90
12025;DHT22;6073;53.230;10.444;2022-12-07T07:19:15;1.00;99.90
12025;DHT22;6073;53.230;10.444;2022-12-07T07:21:41;1.10;99.90
12025;DHT22;6073;53.230;10.444;2022-12-07T07:24:07;1.20;99.90
12025;DHT22;6073;53.230;10.444;2022-12-07T07:26:32;1.20;99.90
12025;DHT22;6073;53.230;10.444;2022-12-07T07:28:58;1.20;99.90
12025;DHT22;6073;53.230;10.444;2022-12-07T07:31:23;1.30;99.90
12025;DHT22;6073;53.230;10.444;2022-12-07T07:33:49;1.40;99.90
12025;DHT22;6073;53.230;10.444;2022-12-07T07:36:15;1.40;99.90
12025;DHT22;6073;53.230;10.444;2022-12-07T07:38:40;1.50;99.90
12025;DHT22;6073;53.230;10.444;2022-12-07T07:41:06;1.50;99.90
12025;DHT22;6073;53.230;10.444;2022-12-07T07:43:32;1.60;99.90
12025;DHT22;6073;53.230;10.444;2022-12-07T07:45:58;1.70;99.90
12025;DHT22;6073;53.230;10.444;2022-12-07T07:48:23;1.70;99.90
12025;DHT22;6073;53.230;10.444;2022-12-07T07:50:53;1.70;99.90
12025;DHT22;6073;53.230;10.444;2022-12-07T07:53:18;1.70;99.90
12025;DHT22;6073;53.230;10.444;2022-12-07T07:55:54;1.70;99.90
12025;DHT22;6073;53.230;10.444;2022-12-07T07:58:20;1.70;99.90
12025;DHT22;6073;53.230;10.444;2022-12-07T08:00:46;1.80;99.90
12025;DHT22;6073;53.230;10.444;2022-12-07T08:03:11;1.80;99.90
12025;DHT22;6073;53.230;10.444;2022-12-07T08:05:38;1.80;99.90
12025;DHT22;6073;53.230;10.444;2022-12-07T08:08:09;1.90;99.90
12025;DHT22;6073;53.230;10.444;2022-12-07T08:10:35;2.00;99.90
12025;DHT22;6073;53.230;10.444;2022-12-07T08:13:02;2.00;99.90
12025;DHT22;6073;53.230;10.444;2022-12-07T08:15:38;2.00;99.90
12025;DHT22;6073;53.230;10.444;2022-12-07T08:18:04;2.10;99.90
12025;DHT22;6073;53.230;10.444;2022-12-07T08:20:31;2.10;99.90
12025;DHT22;6073;53.230;10.444;2022-12-07T08:22:57;2.10;99.90
12025;DHT22;6073;53.230;10.444;2022-12-07T08:25:22;2.10;99.90
12025;DHT22;6073;53.230;10.444;2022-12-07T08:27:48;2.10;99.90
12025;DHT22;6073;53.230;10.444;2022-12-07T08:30:14;2.20;99.90
12025;DHT22;6073;53.230;10.444;2022-12-07T08:32:40;2.20;99.90
12025;DHT22;6073;53.230;10.444;2022-12-07T08:35:06;2.20;99.90
12025;DHT22;6073;53.230;10.444;2022-12-07T08:37:32;2.30;99.90
12025;DHT22;6073;53.230;10.444;2022-12-07T08:39:58;2.30;99.90
12025;DHT22;6073;53.230;10.444;2022-12-07T08:42:23;2.40;99.90
12025;DHT22;6073;53.230;10.444;2022-12-07T08:44:53;2.40;99.90
12025;DHT22;6073;53.230;10.444;2022-12-07T08:47:18;2.40;99.90
12025;DHT22;6073;53.230;10.444;2022-12-07T08:49:46;2.50;99.90
12025;DHT22;6073;53.230;10.444;2022-12-07T08:52:13;2.50;99.90
12025;DHT22;6073;53.230;10.444;2022-12-07T08:54:40;2.50;99.90
12025;DHT22;6073;53.230;10.444;2022-12-07T08:57:06;2.60;99.90
12025;DHT22;6073;53.230;10.444;2022-12-07T08:59:33;2.60;99.90
12025;DHT22;6073;53.230;10.444;2022-12-07T09:01:59;2.70;99.90
12025;DHT22;6073;53.230;10.444;2022-12-07T09:04:25;2.80;99.90
12025;DHT22;6073;53.230;10.444;2022-12-07T09:06:57;2.80;99.90
12025;DHT22;6073;53.230;10.444;2022-12-07T09:09:24;2.80;99.90
12025;DHT22;6073;53.230;10.444;2022-12-07T09:11:50;2.90;99.90
12025;DHT22;6073;53.230;10.444;2022-12-07T09:14:15;3.00;99.90
12025;DHT22;6073;53.230;10.444;2022-12-07T09:16:42;3.00;99.90
12025;DHT22;6073;53.230;10.444;2022-12-07T09:19:08;3.10;99.90
12025;DHT22;6073;53.230;10.444;2022-12-07T09:21:34;3.10;99.90
12025;DHT22;6073;53.230;10.444;2022-12-07T09:24:02;3.20;99.90
12025;DHT22;6073;53.230;10.444;2022-12-07T09:26:30;3.30;99.90
12025;DHT22;6073;53.230;10.444;2022-12-07T09:28:56;3.40;99.90
12025;DHT22;6073;53.230;10.444;2022-12-07T09:31:21;3.40;99.90
12025;DHT22;6073;53.230;10.444;2022-12-07T09:33:47;3.40;99.90
12025;DHT22;6073;53.230;10.444;2022-12-07T09:36:17;3.40;99.90
12025;DHT22;6073;53.230;10.444;2022-12-07T09:38:43;3.40;99.90
12025;DHT22;6073;53.230;10.444;2022-12-07T09:41:08;3.40;99.90
12025;DHT22;6073;53.230;10.444;2022-12-07T09:43:35;3.40;99.90
12025;DHT22;6073;53.230;10.444;2022-12-07T09:46:02;3.40;99.90
12025;DHT22;6073;53.230;10.444;2022-12-07T09:48:36;3.50;99.90
12025;DHT22;6073;53.230;10.444;2022-12-07T09:51:17;3.50;99.90
12025;DHT22;6073;53.230;10.444;2022-12-07T09:53:44;3.60;99.90
12025;DHT22;6073;53.230;10.444;2022-12-07T09:56:15;3.60;99.90
12025;DHT22;6073;53.230;10.444;2022-12-07T09:58:41;3.60;99.90
12025;DHT22;6073;53.230;10.444;2022-12-07T10:03:35;3.60;99.90
12025;DHT22;6073;53.230;10.444;2022-12-07T10:06:01;3.60;99.90
12025;DHT22;6073;53.230;10.444;2022-12-07T10:08:27;3.60;99.90
12025;DHT22;6073;53.230;10.444;2022-12-07T10:10:55;3.70;99.90
12025;DHT22;6073;53.230;10.444;2022-12-07T10:13:34;3.70;99.90
12025;DHT22;6073;53.230;10.444;2022-12-07T10:16:00;3.80;99.90
12025;DHT22;6073;53.230;10.444;2022-12-07T10:18:36;3.80;99.90
12025;DHT22;6073;53.230;10.444;2022-12-07T10:21:12;3.80;99.90
12025;DHT22;6073;53.230;10.444;2022-12-07T10:23:58;3.80;99.90
12025;DHT22;6073;53.230;10.444;2022-12-07T10:26:35;3.70;99.90
12025;DHT22;6073;53.230;10.444;2022-12-07T10:32:02;3.90;99.90
12025;DHT22;6073;53.230;10.444;2022-12-07T10:34:32;3.90;99.90
12025;DHT22;6073;53.230;10.444;2022-12-07T10:39:55;3.90;99.90
12025;DHT22;6073;53.230;10.444;2022-12-07T10:42:24;3.90;99.90
12025;DHT22;6073;53.230;10.444;2022-12-07T11:04:10;4.30;99.90
12025;DHT22;6073;53.230;10.444;2022-12-07T11:07:06;4.30;99.90
12025;DHT22;6073;53.230;10.444;2022-12-07T11:09:48;4.50;99.90
12025;DHT22;6073;53.230;10.444;2022-12-07T11:13:03;4.40;99.90
12025;DHT22;6073;53.230;10.444;2022-12-07T11:23:42;4.30;99.90
12025;DHT22;6073;53.230;10.444;2022-12-07T11:26:34;4.30;99.90
12025;DHT22;6073;53.230;10.444;2022-12-07T11:37:40;4.00;99.90
12025;DHT22;6073;53.230;10.444;2022-12-07T11:40:30;4.10;99.90
12025;DHT22;6073;53.230;10.444;2022-12-07T11:45:42;4.10;99.90
12025;DHT22;6073;53.230;10.444;2022-12-07T11:48:35;4.20;99.90
12025;DHT22;6073;53.230;10.444;2022-12-07T11:51:03;4.10;99.90
12025;DHT22;6073;53.230;10.444;2022-12-07T11:53:36;4.20;99.90
12025;DHT22;6073;53.230;10.444;2022-12-07T11:56:13;4.10;99.90
12025;DHT22;6073;53.230;10.444;2022-12-07T11:59:02;4.20;99.90
12025;DHT22;6073;53.230;10.444;2022-12-07T12:06:32;4.10;99.90
12025;DHT22;6073;53.230;10.444;2022-12-07T12:09:31;4.10;99.90
12025;DHT22;6073;53.230;10.444;2022-12-07T12:12:35;4.20;99.90
12025;DHT22;6073;53.230;10.444;2022-12-07T12:18:51;4.20;99.90
12025;DHT22;6073;53.230;10.444;2022-12-07T12:21:12;4.10;99.90
12025;DHT22;6073;53.230;10.444;2022-12-07T12:24:00;4.10;99.90
12025;DHT22;6073;53.230;10.444;2022-12-07T12:26:33;4.00;99.90
12025;DHT22;6073;53.230;10.444;2022-12-07T12:29:00;4.00;99.90
12025;DHT22;6073;53.230;10.444;2022-12-07T12:33:55;3.90;99.90
12025;DHT22;6073;53.230;10.444;2022-12-07T12:36:25;3.90;99.90
12025;DHT22;6073;53.230;10.444;2022-12-07T12:39:11;3.90;99.90
12025;DHT22;6073;53.230;10.444;2022-12-07T12:46:58;4.00;99.90
12025;DHT22;6073;53.230;10.444;2022-12-07T12:49:30;3.90;99.90
12025;DHT22;6073;53.230;10.444;2022-12-07T12:54:31;4.00;99.90
12025;DHT22;6073;53.230;10.444;2022-12-07T12:57:29;4.00;99.90
12025;DHT22;6073;53.230;10.444;2022-12-07T13:02:29;4.10;99.90
12025;DHT22;6073;53.230;10.444;2022-12-07T13:05:03;4.10;99.90
12025;DHT22;6073;53.230;10.444;2022-12-07T13:29:04;3.80;99.90
12025;DHT22;6073;53.230;10.444;2022-12-07T13:31:34;3.70;99.90
12025;DHT22;6073;53.230;10.444;2022-12-07T13:34:01;3.70;99.90
12025;DHT22;6073;53.230;10.444;2022-12-07T13:36:37;3.80;99.90
12025;DHT22;6073;53.230;10.444;2022-12-07T13:41:37;3.80;99.90
12025;DHT22;6073;53.230;10.444;2022-12-07T13:49:30;3.70;99.90
12025;DHT22;6073;53.230;10.444;2022-12-07T13:54:47;3.60;99.90
12025;DHT22;6073;53.230;10.444;2022-12-07T13:57:14;3.60;99.90
12025;DHT22;6073;53.230;10.444;2022-12-07T13:59:40;3.50;99.90
12025;DHT22;6073;53.230;10.444;2022-12-07T14:02:53;3.50;99.90
12025;DHT22;6073;53.230;10.444;2022-12-07T14:05:30;3.50;99.90
12025;DHT22;6073;53.230;10.444;2022-12-07T14:12:50;3.40;99.90
12025;DHT22;6073;53.230;10.444;2022-12-07T14:15:36;3.30;99.90
12025;DHT22;6073;53.230;10.444;2022-12-07T14:18:02;3.30;99.90
12025;DHT22;6073;53.230;10.444;2022-12-07T14:20:43;3.30;99.90
12025;DHT22;6073;53.230;10.444;2022-12-07T14:23:27;3.20;99.90
12025;DHT22;6073;53.230;10.444;2022-12-07T14:25:53;3.20;99.90
12025;DHT22;6073;53.230;10.444;2022-12-07T14:28:33;3.10;99.90
12025;DHT22;6073;53.230;10.444;2022-12-07T14:31:00;3.10;99.90
12025;DHT22;6073;53.230;10.444;2022-12-07T14:33:26;3.00;99.90
12025;DHT22;6073;53.230;10.444;2022-12-07T14:35:52;3.00;99.90
12025;DHT22;6073;53.230;10.444;2022-12-07T14:38:24;2.90;99.90
12025;DHT22;6073;53.230;10.444;2022-12-07T14:40:54;2.90;99.90
12025;DHT22;6073;53.230;10.444;2022-12-07T14:43:20;2.90;99.90
12025;DHT22;6073;53.230;10.444;2022-12-07T14:45:46;2.80;99.90
12025;DHT22;6073;53.230;10.444;2022-12-07T14:48:13;2.80;99.90
12025;DHT22;6073;53.230;10.444;2022-12-07T14:50:44;2.70;99.90
12025;DHT22;6073;53.230;10.444;2022-12-07T14:53:15;2.70;99.90
12025;DHT22;6073;53.230;10.444;2022-12-07T14:55:41;2.70;99.90
12025;DHT22;6073;53.230;10.444;2022-12-07T14:58:13;2.60;99.90
12025;DHT22;6073;53.230;10.444;2022-12-07T15:00:39;2.60;99.90
12025;DHT22;6073;53.230;10.444;2022-12-07T15:03:04;2.50;99.90
12025;DHT22;6073;53.230;10.444;2022-12-07T15:05:30;2.50;99.90
12025;DHT22;6073;53.230;10.444;2022-12-07T15:07:56;2.40;99.90
12025;DHT22;6073;53.230;10.444;2022-12-07T15:10:27;2.40;99.90
12025;DHT22;6073;53.230;10.444;2022-12-07T15:13:02;2.40;99.90
12025;DHT22;6073;53.230;10.444;2022-12-07T15:15:51;2.30;99.90
12025;DHT22;6073;53.230;10.444;2022-12-07T15:18:19;2.30;99.90
12025;DHT22;6073;53.230;10.444;2022-12-07T15:20:45;2.20;99.90
12025;DHT22;6073;53.230;10.444;2022-12-07T15:23:11;2.20;99.90
12025;DHT22;6073;53.230;10.444;2022-12-07T15:25:40;2.00;99.90
12025;DHT22;6073;53.230;10.444;2022-12-07T15:28:06;1.90;99.90
12025;DHT22;6073;53.230;10.444;2022-12-07T15:30:32;1.90;99.90
12025;DHT22;6073;53.230;10.444;2022-12-07T15:32:57;1.80;99.90
12025;DHT22;6073;53.230;10.444;2022-12-07T15:35:23;1.80;99.90
12025;DHT22;6073;53.230;10.444;2022-12-07T15:37:48;1.80;99.90
12025;DHT22;6073;53.230;10.444;2022-12-07T15:40:14;1.70;99.90
12025;DHT22;6073;53.230;10.444;2022-12-07T15:42:40;1.70;99.90
12025;DHT22;6073;53.230;10.444;2022-12-07T15:45:07;1.60;99.90
12025;DHT22;6073;53.230;10.444;2022-12-07T15:47:39;1.50;99.90
12025;DHT22;6073;53.230;10.444;2022-12-07T15:50:08;1.40;99.90
12025;DHT22;6073;53.230;10.444;2022-12-07T15:52:34;1.40;99.90
12025;DHT22;6073;53.230;10.444;2022-12-07T15:54:59;1.30;99.90
12025;DHT22;6073;53.230;10.444;2022-12-07T15:57:26;1.30;99.90
12025;DHT22;6073;53.230;10.444;2022-12-07T15:59:51;1.30;99.90
12025;DHT22;6073;53.230;10.444;2022-12-07T16:02:17;1.30;99.90
12025;DHT22;6073;53.230;10.444;2022-12-07T16:04:43;1.30;99.90
12025;DHT22;6073;53.230;10.444;2022-12-07T16:07:08;1.30;99.90
12025;DHT22;6073;53.230;10.444;2022-12-07T16:09:34;1.40;99.90
12025;DHT22;6073;53.230;10.444;2022-12-07T16:11:59;1.40;99.90
12025;DHT22;6073;53.230;10.444;2022-12-07T16:14:25;1.40;99.90
12025;DHT22;6073;53.230;10.444;2022-12-07T16:16:51;1.30;99.90
12025;DHT22;6073;53.230;10.444;2022-12-07T16:19:16;1.30;99.90
12025;DHT22;6073;53.230;10.444;2022-12-07T16:21:42;1.20;99.90
12025;DHT22;6073;53.230;10.444;2022-12-07T16:24:08;1.20;99.90
12025;DHT22;6073;53.230;10.444;2022-12-07T16:26:35;1.10;99.90
12025;DHT22;6073;53.230;10.444;2022-12-07T16:29:01;1.00;99.90
12025;DHT22;6073;53.230;10.444;2022-12-07T16:31:27;0.90;99.90
12025;DHT22;6073;53.230;10.444;2022-12-07T16:33:54;0.90;99.90
12025;DHT22;6073;53.230;10.444;2022-12-07T16:36:20;0.90;99.90
12025;DHT22;6073;53.230;10.444;2022-12-07T16:38:48;0.90;99.90
12025;DHT22;6073;53.230;10.444;2022-12-07T16:41:14;0.80;99.90
12025;DHT22;6073;53.230;10.444;2022-12-07T16:43:40;0.70;99.90
12025;DHT22;6073;53.230;10.444;2022-12-07T16:46:06;0.60;99.90
12025;DHT22;6073;53.230;10.444;2022-12-07T16:48:34;0.50;99.90
12025;DHT22;6073;53.230;10.444;2022-12-07T16:51:03;0.40;99.90
12025;DHT22;6073;53.230;10.444;2022-12-07T17:00:18;0.20;99.90
12025;DHT22;6073;53.230;10.444;2022-12-07T17:02:44;0.20;99.90
12025;DHT22;6073;53.230;10.444;2022-12-07T17:05:09;0.10;99.90
12025;DHT22;6073;53.230;10.444;2022-12-07T17:07:35;0.10;99.90
12025;DHT22;6073;53.230;10.444;2022-12-07T17:10:01;0.00;99.90
12025;DHT22;6073;53.230;10.444;2022-12-07T17:12:26;0.00;99.90
12025;DHT22;6073;53.230;10.444;2022-12-07T17:14:52;-0.10;99.90
12025;DHT22;6073;53.230;10.444;2022-12-07T17:17:37;-0.10;99.90
12025;DHT22;6073;53.230;10.444;2022-12-07T17:20:03;-0.10;99.90
12025;DHT22;6073;53.230;10.444;2022-12-07T17:22:29;-0.10;99.90
12025;DHT22;6073;53.230;10.444;2022-12-07T17:24:54;-0.10;99.90
12025;DHT22;6073;53.230;10.444;2022-12-07T17:27:20;-0.10;99.90
12025;DHT22;6073;53.230;10.444;2022-12-07T17:29:46;-0.10;99.90
12025;DHT22;6073;53.230;10.444;2022-12-07T17:32:11;-0.10;99.90
12025;DHT22;6073;53.230;10.444;2022-12-07T17:34:37;-0.10;99.90
12025;DHT22;6073;53.230;10.444;2022-12-07T17:37:02;-0.10;99.90
12025;DHT22;6073;53.230;10.444;2022-12-07T17:39:29;-0.10;99.90
12025;DHT22;6073;53.230;10.444;2022-12-07T17:41:55;-0.10;99.90
12025;DHT22;6073;53.230;10.444;2022-12-07T17:44:39;-0.10;99.90
12025;DHT22;6073;53.230;10.444;2022-12-07T17:47:05;-0.10;99.90
12025;DHT22;6073;53.230;10.444;2022-12-07T17:49:32;-0.10;99.90
12025;DHT22;6073;53.230;10.444;2022-12-07T17:51:58;-0.10;99.90
12025;DHT22;6073;53.230;10.444;2022-12-07T17:54:43;-0.10;99.90
12025;DHT22;6073;53.230;10.444;2022-12-07T17:57:08;-0.10;99.90
12025;DHT22;6073;53.230;10.444;2022-12-07T17:59:34;0.00;99.90
12025;DHT22;6073;53.230;10.444;2022-12-07T18:01:59;0.00;99.90
12025;DHT22;6073;53.230;10.444;2022-12-07T18:04:26;-0.10;99.90
12025;DHT22;6073;53.230;10.444;2022-12-07T18:06:52;-0.10;99.90
12025;DHT22;6073;53.230;10.444;2022-12-07T18:09:18;-0.10;99.90
12025;DHT22;6073;53.230;10.444;2022-12-07T18:11:43;-0.10;99.90
12025;DHT22;6073;53.230;10.444;2022-12-07T18:14:09;-0.10;99.90
12025;DHT22;6073;53.230;10.444;2022-12-07T18:16:35;0.00;99.90
12025;DHT22;6073;53.230;10.444;2022-12-07T18:19:02;0.00;99.90
12025;DHT22;6073;53.230;10.444;2022-12-07T18:21:29;0.00;99.90
12025;DHT22;6073;53.230;10.444;2022-12-07T18:23:57;0.00;99.90